createdAt,value
2022-12-11T00:00:16.176Z,3.83
2022-12-11T00:01:19.546Z,2.71
2022-12-11T00:02:22.763Z,2.00
2022-12-11T00:03:25.920Z,3.00
2022-12-11T00:04:29.301Z,3.00
2022-12-11T00:05:32.688Z,4.14
2022-12-11T00:06:36.168Z,3.43
2022-12-11T00:07:39.867Z,4.57
2022-12-11T00:08:43.489Z,2.43
2022-12-11T00:09:46.949Z,2.00
2022-12-11T00:10:50.245Z,3.43
2022-12-11T00:11:53.721Z,2.57
2022-12-11T00:12:57.308Z,2.00
2022-12-11T00:14:00.659Z,3.57
2022-12-11T00:15:04.046Z,7.57
2022-12-11T00:16:07.712Z,9.86
2022-12-11T00:17:11.292Z,8.86
2022-12-11T00:18:14.859Z,5.29
2022-12-11T00:19:18.244Z,2.00
2022-12-11T00:20:21.528Z,2.14
2022-12-11T00:21:25.019Z,3.00
2022-12-11T00:22:28.304Z,3.57
2022-12-11T00:23:31.546Z,3.29
2022-12-11T00:24:34.896Z,3.00
2022-12-11T00:25:38.359Z,3.14
2022-12-11T00:26:41.871Z,2.14
2022-12-11T00:27:45.366Z,2.75
2022-12-11T00:28:48.722Z,4.14
2022-12-11T00:29:52.521Z,3.00
2022-12-11T00:30:55.763Z,4.00
2022-12-11T00:31:59.221Z,3.43
2022-12-11T00:33:02.578Z,3.43
2022-12-11T00:34:06.300Z,3.43
2022-12-11T00:35:10.091Z,3.14
2022-12-11T00:36:13.765Z,3.50
2022-12-11T00:37:17.302Z,2.75
2022-12-11T00:38:20.851Z,1.71
2022-12-11T00:39:24.025Z,3.50
2022-12-11T00:40:27.204Z,3.67
2022-12-11T00:41:30.499Z,2.57
2022-12-11T00:42:33.672Z,2.14
2022-12-11T00:43:36.965Z,3.43
2022-12-11T00:44:40.239Z,4.57
2022-12-11T00:45:43.673Z,4.14
2022-12-11T00:46:47.115Z,3.00
2022-12-11T00:47:50.297Z,2.71
2022-12-11T00:48:53.344Z,3.43
2022-12-11T00:49:56.765Z,3.43
2022-12-11T00:50:59.950Z,2.43
2022-12-11T00:52:03.094Z,3.43
2022-12-11T00:53:06.207Z,3.29
2022-12-11T00:54:09.391Z,3.14
2022-12-11T00:55:12.791Z,2.86
2022-12-11T00:56:15.960Z,4.00
2022-12-11T00:57:19.242Z,3.33
2022-12-11T00:58:22.490Z,3.29
2022-12-11T00:59:25.715Z,3.00
2022-12-11T01:00:28.995Z,3.00
2022-12-11T01:01:32.738Z,2.86
2022-12-11T01:02:35.829Z,1.75
2022-12-11T01:03:39.251Z,1.86
2022-12-11T01:04:42.651Z,3.00
2022-12-11T01:05:46.230Z,3.71
2022-12-11T01:06:49.521Z,3.14
2022-12-11T01:07:53.045Z,4.00
2022-12-11T01:08:56.291Z,5.25
2022-12-11T01:09:59.784Z,3.14
2022-12-11T01:11:03.064Z,2.29
2022-12-11T01:12:06.348Z,4.29
2022-12-11T01:13:09.493Z,3.50
2022-12-11T01:14:12.562Z,2.17
2022-12-11T01:15:16.003Z,3.33
2022-12-11T01:16:19.257Z,3.57
2022-12-11T01:17:22.669Z,3.00
2022-12-11T01:18:28.187Z,2.29
2022-12-11T01:19:30.257Z,4.50
2022-12-11T01:20:33.551Z,2.43
2022-12-11T01:21:36.823Z,3.43
2022-12-11T01:22:40.112Z,2.71
2022-12-11T01:23:43.497Z,2.00
2022-12-11T01:24:46.733Z,2.14
2022-12-11T01:25:50.169Z,3.43
2022-12-11T01:26:53.245Z,2.29
2022-12-11T01:27:56.737Z,1.86
2022-12-11T01:29:00.122Z,3.71
2022-12-11T01:30:03.305Z,2.00
2022-12-11T01:31:06.746Z,2.33
2022-12-11T01:32:10.283Z,3.00
2022-12-11T01:33:13.461Z,3.00
2022-12-11T01:34:16.749Z,3.00
2022-12-11T01:35:19.886Z,2.33
2022-12-11T01:36:23.114Z,1.33
2022-12-11T01:37:26.300Z,1.86
2022-12-11T01:38:29.686Z,2.29
2022-12-11T01:39:33.169Z,2.71
2022-12-11T01:40:36.572Z,2.86
2022-12-11T01:41:39.944Z,2.29
2022-12-11T01:42:43.335Z,2.71
2022-12-11T01:43:46.731Z,2.71
2022-12-11T01:44:49.899Z,2.00
2022-12-11T01:45:53.692Z,2.86
2022-12-11T01:46:56.986Z,3.14
2022-12-11T01:47:59.938Z,1.57
2022-12-11T01:49:03.241Z,2.00
2022-12-11T01:50:06.295Z,2.86
2022-12-11T01:51:09.602Z,3.00
2022-12-11T01:52:12.770Z,1.86
2022-12-11T01:53:15.971Z,1.83
2022-12-11T01:54:19.354Z,0.83
2022-12-11T01:55:22.741Z,1.43
2022-12-11T01:56:26.242Z,2.00
2022-12-11T01:57:29.633Z,2.00
2022-12-11T01:58:33.105Z,1.86
2022-12-11T01:59:36.389Z,2.14
2022-12-11T02:00:39.672Z,1.71
2022-12-11T02:01:43.094Z,2.00
2022-12-11T02:02:46.260Z,2.43
2022-12-11T02:03:49.523Z,3.00
2022-12-11T02:04:52.706Z,3.29
2022-12-11T02:05:55.784Z,2.71
2022-12-11T02:06:59.075Z,2.86
2022-12-11T02:08:02.454Z,3.14
2022-12-11T02:09:05.740Z,2.86
2022-12-11T02:10:09.028Z,1.86
2022-12-11T02:11:12.515Z,4.17
2022-12-11T02:12:15.808Z,3.71
2022-12-11T02:13:19.085Z,5.00
2022-12-11T02:14:22.487Z,3.71
2022-12-11T02:15:25.752Z,3.29
2022-12-11T02:16:28.980Z,2.83
2022-12-11T02:17:32.532Z,2.71
2022-12-11T02:18:35.702Z,2.57
2022-12-11T02:19:38.772Z,2.86
2022-12-11T02:20:42.094Z,2.86
2022-12-11T02:21:45.370Z,3.14
2022-12-11T02:22:48.644Z,3.57
2022-12-11T02:23:52.015Z,3.57
2022-12-11T02:24:55.214Z,4.43
2022-12-11T02:25:58.527Z,4.86
2022-12-11T02:27:01.947Z,3.71
2022-12-11T02:28:05.063Z,3.67
2022-12-11T02:29:08.268Z,4.00
2022-12-11T02:30:11.634Z,4.33
2022-12-11T02:31:14.942Z,3.71
2022-12-11T02:32:18.204Z,3.14
2022-12-11T02:33:21.594Z,3.00
2022-12-11T02:34:24.778Z,3.14
2022-12-11T02:35:28.160Z,3.14
2022-12-11T02:36:31.436Z,2.43
2022-12-11T02:37:34.942Z,4.29
2022-12-11T02:38:38.110Z,4.29
2022-12-11T02:39:41.392Z,3.29
2022-12-11T02:40:44.503Z,3.67
2022-12-11T02:41:47.651Z,4.00
2022-12-11T02:42:51.042Z,4.14
2022-12-11T02:43:54.327Z,6.33
2022-12-11T02:44:57.608Z,8.57
2022-12-11T02:46:01.019Z,6.00
2022-12-11T02:47:04.283Z,4.00
2022-12-11T02:48:07.769Z,4.00
2022-12-11T02:49:11.067Z,4.14
2022-12-11T02:50:14.337Z,3.57
2022-12-11T02:51:17.525Z,3.86
2022-12-11T02:52:20.496Z,5.14
2022-12-11T02:53:23.795Z,5.00
2022-12-11T02:54:27.272Z,3.29
2022-12-11T02:55:30.567Z,2.14
2022-12-11T02:56:33.738Z,2.00
2022-12-11T02:57:36.815Z,2.71
2022-12-11T02:58:40.202Z,3.29
2022-12-11T02:59:43.487Z,2.57
2022-12-11T03:00:46.984Z,2.43
2022-12-11T03:01:50.756Z,2.71
2022-12-11T03:02:54.270Z,3.00
2022-12-11T03:03:58.166Z,2.71
2022-12-11T03:05:01.451Z,3.00
2022-12-11T03:06:04.962Z,2.86
2022-12-11T03:07:08.117Z,2.43
2022-12-11T03:08:11.667Z,2.43
2022-12-11T03:09:14.801Z,1.43
2022-12-11T03:10:18.792Z,2.00
2022-12-11T03:11:22.291Z,2.14
2022-12-11T03:12:25.867Z,2.14
2022-12-11T03:13:29.289Z,2.14
2022-12-11T03:14:32.949Z,3.50
2022-12-11T03:15:36.545Z,3.57
2022-12-11T03:16:40.812Z,3.00
2022-12-11T03:17:44.031Z,3.50
2022-12-11T03:18:47.415Z,3.29
2022-12-11T03:19:51.518Z,3.00
2022-12-11T03:20:55.135Z,2.00
2022-12-11T03:21:58.804Z,2.12
2022-12-11T03:23:02.309Z,3.00
2022-12-11T03:24:05.892Z,3.00
2022-12-11T03:25:10.278Z,3.43
2022-12-11T03:26:13.693Z,2.50
2022-12-11T03:27:18.093Z,1.00
2022-12-11T03:28:21.394Z,2.50
2022-12-11T03:29:25.078Z,3.00
2022-12-11T03:30:29.000Z,3.00
2022-12-11T03:31:32.665Z,2.50
2022-12-11T03:32:36.460Z,2.00
2022-12-11T03:33:40.057Z,3.00
2022-12-11T03:34:43.707Z,4.00
2022-12-11T03:35:47.747Z,4.43
2022-12-11T03:36:51.048Z,3.14
2022-12-11T03:37:54.723Z,3.17
2022-12-11T03:38:58.744Z,2.43
2022-12-11T03:40:01.908Z,3.25
2022-12-11T03:41:05.215Z,4.14
2022-12-11T03:42:09.094Z,3.00
2022-12-11T03:43:12.478Z,3.00
2022-12-11T03:44:15.767Z,3.00
2022-12-11T03:45:19.180Z,2.57
2022-12-11T03:46:22.490Z,2.86
2022-12-11T03:47:26.045Z,3.29
2022-12-11T03:48:29.511Z,2.00
2022-12-11T03:49:32.690Z,0.86
2022-12-11T03:50:36.081Z,1.43
2022-12-11T03:51:39.369Z,3.29
2022-12-11T03:52:45.818Z,2.83
2022-12-11T03:53:47.270Z,2.50
2022-12-11T03:54:51.163Z,3.29
2022-12-11T03:55:54.759Z,3.43
2022-12-11T03:56:58.655Z,3.50
2022-12-11T03:58:02.048Z,3.43
2022-12-11T03:59:06.041Z,3.14
2022-12-11T04:00:09.957Z,2.00
2022-12-11T04:01:13.631Z,3.00
2022-12-11T04:02:17.141Z,3.14
2022-12-11T04:03:21.377Z,3.14
2022-12-11T04:04:26.187Z,3.00
2022-12-11T04:05:29.845Z,3.37
2022-12-11T04:06:33.383Z,3.14
2022-12-11T04:07:37.030Z,3.43
2022-12-11T04:08:40.312Z,3.86
2022-12-11T04:09:43.800Z,3.00
2022-12-11T04:10:46.985Z,3.43
2022-12-11T04:11:50.674Z,3.14
2022-12-11T04:12:54.287Z,2.29
2022-12-11T04:13:57.858Z,3.00
2022-12-11T04:15:01.154Z,2.86
2022-12-11T04:16:04.813Z,2.67
2022-12-11T04:17:08.122Z,2.00
2022-12-11T04:18:11.929Z,1.14
2022-12-11T04:19:15.507Z,1.75
2022-12-11T04:20:19.325Z,2.43
2022-12-11T04:21:22.593Z,2.86
2022-12-11T04:22:25.840Z,2.71
2022-12-11T04:23:29.807Z,2.71
2022-12-11T04:24:33.370Z,2.43
2022-12-11T04:25:36.955Z,2.43
2022-12-11T04:26:40.658Z,3.43
2022-12-11T04:27:44.040Z,4.00
2022-12-11T04:28:48.141Z,3.57
2022-12-11T04:29:51.947Z,3.00
2022-12-11T04:30:55.680Z,3.29
2022-12-11T04:31:59.324Z,2.50
2022-12-11T04:33:02.711Z,1.86
2022-12-11T04:34:06.307Z,2.14
2022-12-11T04:35:10.121Z,1.86
2022-12-11T04:36:13.686Z,2.62
2022-12-11T04:37:16.968Z,2.71
2022-12-11T04:38:20.466Z,1.43
2022-12-11T04:39:24.281Z,2.00
2022-12-11T04:40:27.750Z,2.43
2022-12-11T04:41:30.918Z,2.43
2022-12-11T04:42:34.109Z,2.00
2022-12-11T04:43:37.316Z,2.29
2022-12-11T04:44:40.691Z,3.14
2022-12-11T04:45:44.280Z,1.00
2022-12-11T04:46:47.792Z,1.00
2022-12-11T04:47:51.245Z,1.43
2022-12-11T04:48:57.577Z,2.00
2022-12-11T04:49:59.045Z,2.00
2022-12-11T04:51:02.672Z,2.00
2022-12-11T04:52:06.240Z,1.00
2022-12-11T04:53:09.819Z,0.57
2022-12-11T04:54:13.105Z,0.57
2022-12-11T04:55:16.589Z,2.67
2022-12-11T04:56:19.975Z,2.29
2022-12-11T04:57:23.565Z,2.14
2022-12-11T04:58:26.749Z,2.57
2022-12-11T04:59:30.138Z,2.00
2022-12-11T05:00:33.324Z,1.43
2022-12-11T05:01:36.554Z,2.29
2022-12-11T05:02:40.390Z,2.00
2022-12-11T05:03:43.490Z,3.12
2022-12-11T05:04:46.869Z,4.00
2022-12-11T05:05:50.458Z,2.14
2022-12-11T05:06:53.776Z,2.14
2022-12-11T05:07:57.049Z,2.43
2022-12-11T05:09:00.620Z,2.83
2022-12-11T05:10:04.107Z,2.71
2022-12-11T05:11:07.712Z,3.00
2022-12-11T05:12:11.378Z,3.43
2022-12-11T05:13:14.780Z,3.29
2022-12-11T05:14:17.961Z,2.67
2022-12-11T05:15:21.550Z,2.43
2022-12-11T05:16:25.364Z,2.86
2022-12-11T05:17:28.732Z,2.25
2022-12-11T05:18:31.914Z,3.00
2022-12-11T05:19:35.405Z,2.57
2022-12-11T05:20:39.817Z,2.43
2022-12-11T05:21:43.103Z,2.00
2022-12-11T05:22:46.055Z,2.43
2022-12-11T05:23:49.163Z,3.43
2022-12-11T05:24:52.355Z,4.33
2022-12-11T05:25:55.733Z,4.43
2022-12-11T05:26:59.316Z,4.71
2022-12-11T05:28:02.502Z,4.14
2022-12-11T05:29:05.888Z,2.83
2022-12-11T05:30:08.936Z,3.00
2022-12-11T05:31:12.101Z,3.00
2022-12-11T05:32:15.230Z,3.00
2022-12-11T05:33:18.406Z,3.00
2022-12-11T05:34:21.478Z,3.00
2022-12-11T05:35:24.573Z,2.57
2022-12-11T05:36:27.750Z,2.57
2022-12-11T05:37:31.131Z,2.14
2022-12-11T05:38:34.358Z,2.29
2022-12-11T05:39:37.611Z,3.00
2022-12-11T05:40:41.296Z,3.00
2022-12-11T05:41:44.887Z,3.00
2022-12-11T05:42:48.507Z,3.25
2022-12-11T05:43:52.175Z,3.57
2022-12-11T05:44:55.657Z,3.50
2022-12-11T05:45:58.952Z,3.57
2022-12-11T05:47:02.474Z,3.43
2022-12-11T05:48:05.886Z,3.57
2022-12-11T05:49:09.232Z,2.00
2022-12-11T05:50:12.594Z,3.00
2022-12-11T05:51:15.879Z,3.57
2022-12-11T05:52:19.264Z,3.57
2022-12-11T05:53:22.760Z,2.14
2022-12-11T05:54:25.940Z,3.14
2022-12-11T05:55:29.062Z,4.71
2022-12-11T05:56:32.416Z,3.14
2022-12-11T05:57:35.496Z,3.43
2022-12-11T05:58:38.763Z,3.86
2022-12-11T05:59:42.254Z,2.86
2022-12-11T06:00:46.063Z,2.43
2022-12-11T06:01:49.609Z,2.57
2022-12-11T06:02:53.249Z,3.37
2022-12-11T06:03:56.619Z,4.29
2022-12-11T06:05:01.031Z,3.43
2022-12-11T06:06:04.520Z,4.00
2022-12-11T06:07:08.115Z,3.57
2022-12-11T06:08:11.520Z,3.86
2022-12-11T06:09:14.844Z,6.29
2022-12-11T06:10:18.272Z,5.57
2022-12-11T06:11:24.217Z,3.43
2022-12-11T06:12:26.339Z,3.12
2022-12-11T06:13:29.772Z,3.57
2022-12-11T06:14:32.958Z,3.43
2022-12-11T06:15:36.123Z,3.14
2022-12-11T06:16:39.359Z,2.43
2022-12-11T06:17:43.420Z,3.00
2022-12-11T06:18:46.598Z,4.62
2022-12-11T06:19:50.185Z,4.71
2022-12-11T06:20:53.469Z,4.00
2022-12-11T06:21:57.057Z,4.43
2022-12-11T06:23:00.348Z,5.57
2022-12-11T06:24:04.056Z,2.71
2022-12-11T06:25:07.629Z,3.71
2022-12-11T06:26:11.219Z,5.25
2022-12-11T06:27:14.712Z,4.00
2022-12-11T06:28:17.995Z,4.00
2022-12-11T06:29:21.687Z,3.86
2022-12-11T06:30:38.422Z,5.14
2022-12-11T06:31:29.202Z,5.25
2022-12-11T06:32:32.283Z,4.00
2022-12-11T06:33:35.754Z,4.50
2022-12-11T06:34:39.032Z,4.37
2022-12-11T06:35:42.598Z,4.71
2022-12-11T06:36:46.316Z,4.57
2022-12-11T06:37:50.009Z,4.00
2022-12-11T06:38:53.294Z,4.00
2022-12-11T06:39:56.785Z,4.57
2022-12-11T06:41:00.191Z,3.71
2022-12-11T06:42:03.874Z,3.86
2022-12-11T06:43:07.457Z,4.29
2022-12-11T06:44:10.740Z,3.33
2022-12-11T06:45:14.125Z,5.57
2022-12-11T06:46:17.788Z,5.00
2022-12-11T06:47:21.308Z,4.57
2022-12-11T06:48:24.703Z,4.00
2022-12-11T06:49:28.393Z,4.43
2022-12-11T06:50:31.990Z,5.86
2022-12-11T06:51:35.372Z,5.00
2022-12-11T06:52:38.550Z,4.14
2022-12-11T06:53:41.941Z,3.86
2022-12-11T06:54:45.217Z,3.29
2022-12-11T06:55:48.607Z,3.29
2022-12-11T06:56:51.956Z,3.00
2022-12-11T06:57:55.073Z,3.00
2022-12-11T06:59:01.654Z,3.14
2022-12-11T07:00:03.173Z,2.50
2022-12-11T07:01:06.853Z,3.57
2022-12-11T07:02:10.274Z,3.12
2022-12-11T07:03:13.643Z,5.14
2022-12-11T07:04:17.443Z,4.43
2022-12-11T07:05:21.029Z,4.75
2022-12-11T07:06:23.996Z,3.86
2022-12-11T07:07:27.501Z,3.00
2022-12-11T07:08:30.985Z,3.43
2022-12-11T07:09:34.477Z,3.43
2022-12-11T07:10:37.972Z,4.43
2022-12-11T07:11:41.143Z,4.57
2022-12-11T07:12:44.224Z,3.57
2022-12-11T07:13:47.405Z,3.00
2022-12-11T07:14:50.554Z,3.43
2022-12-11T07:15:54.094Z,4.00
2022-12-11T07:16:57.158Z,2.71
2022-12-11T07:18:00.442Z,3.29
2022-12-11T07:19:03.361Z,3.71
2022-12-11T07:20:06.502Z,3.43
2022-12-11T07:21:09.577Z,4.43
2022-12-11T07:22:12.764Z,2.71
2022-12-11T07:23:15.836Z,2.71
2022-12-11T07:24:18.900Z,4.67
2022-12-11T07:25:21.997Z,4.67
2022-12-11T07:26:25.490Z,4.29
2022-12-11T07:27:28.780Z,3.43
2022-12-11T07:28:31.864Z,3.67
2022-12-11T07:29:34.641Z,3.67
2022-12-11T07:30:37.174Z,3.57
2022-12-11T07:31:40.085Z,3.17
2022-12-11T07:32:42.705Z,4.29
2022-12-11T07:33:45.591Z,4.00
2022-12-11T07:34:51.727Z,5.50
2022-12-11T07:35:52.290Z,2.57
2022-12-11T07:36:54.900Z,2.00
2022-12-11T07:37:57.710Z,4.50
2022-12-11T07:39:00.443Z,5.14
2022-12-11T07:40:03.332Z,3.33
2022-12-11T07:41:06.265Z,5.67
2022-12-11T07:42:09.141Z,6.57
2022-12-11T07:43:11.904Z,4.00
2022-12-11T07:44:14.741Z,5.29
2022-12-11T07:45:17.604Z,4.33
2022-12-11T07:46:20.460Z,6.00
2022-12-11T07:47:23.347Z,4.67
2022-12-11T07:48:26.120Z,4.67
2022-12-11T07:49:28.872Z,5.50
2022-12-11T07:50:35.110Z,5.50
2022-12-11T07:51:35.338Z,4.00
2022-12-11T07:52:37.931Z,4.67
2022-12-11T07:53:40.704Z,6.00
2022-12-11T07:54:43.525Z,4.00
2022-12-11T07:55:46.311Z,3.33
2022-12-11T07:56:53.483Z,4.29
2022-12-11T07:57:53.189Z,3.12
2022-12-11T07:58:56.003Z,4.33
2022-12-11T07:59:58.807Z,5.00
2022-12-11T08:01:01.423Z,4.83
2022-12-11T08:02:04.093Z,4.67
2022-12-11T08:03:06.675Z,3.83
2022-12-11T08:04:09.252Z,6.17
2022-12-11T08:05:12.171Z,7.33
2022-12-11T08:06:15.046Z,5.29
2022-12-11T08:07:17.636Z,5.33
2022-12-11T08:08:20.270Z,5.00
2022-12-11T08:09:22.882Z,5.67
2022-12-11T08:10:25.605Z,5.20
2022-12-11T08:11:28.290Z,5.33
2022-12-11T08:12:31.406Z,4.67
2022-12-11T08:13:34.009Z,4.71
2022-12-11T08:14:36.617Z,4.33
2022-12-11T08:15:39.214Z,5.17
2022-12-11T08:16:41.823Z,6.33
2022-12-11T08:17:44.865Z,2.67
2022-12-11T08:18:47.412Z,4.29
2022-12-11T08:19:49.994Z,4.67
2022-12-11T08:20:52.577Z,6.17
2022-12-11T08:21:55.386Z,4.33
2022-12-11T08:22:59.308Z,4.17
2022-12-11T08:24:02.243Z,4.62
2022-12-11T08:25:05.107Z,5.17
2022-12-11T08:26:08.027Z,6.17
2022-12-11T08:27:10.873Z,5.83
2022-12-11T08:28:13.861Z,4.17
2022-12-11T08:29:16.673Z,4.57
2022-12-11T08:30:19.492Z,3.67
2022-12-11T08:31:22.361Z,5.14
2022-12-11T08:32:24.930Z,5.33
2022-12-11T08:33:27.854Z,4.33
2022-12-11T08:34:30.490Z,6.33
2022-12-11T08:35:33.100Z,5.67
2022-12-11T08:36:35.699Z,5.43
2022-12-11T08:37:38.294Z,4.83
2022-12-11T08:38:40.914Z,6.00
2022-12-11T08:39:43.553Z,6.17
2022-12-11T08:40:46.121Z,5.00
2022-12-11T08:41:48.785Z,5.00
2022-12-11T08:42:51.407Z,6.00
2022-12-11T08:43:54.035Z,4.17
2022-12-11T08:44:56.574Z,3.33
2022-12-11T08:45:59.225Z,3.67
2022-12-11T08:47:01.725Z,4.00
2022-12-11T08:48:04.230Z,3.00
2022-12-11T08:49:07.230Z,4.50
2022-12-11T08:50:10.081Z,5.29
2022-12-11T08:51:12.922Z,5.50
2022-12-11T08:52:15.743Z,6.33
2022-12-11T08:53:18.491Z,5.83
2022-12-11T08:54:30.435Z,5.00
2022-12-11T08:55:33.412Z,2.86
2022-12-11T08:56:36.925Z,6.57
2022-12-11T08:57:40.287Z,6.29
2022-12-11T08:58:43.785Z,5.86
2022-12-11T08:59:47.378Z,7.43
2022-12-11T09:00:50.525Z,6.50
2022-12-11T09:01:53.862Z,5.00
2022-12-11T09:02:57.273Z,5.29
2022-12-11T09:04:00.917Z,6.57
2022-12-11T09:05:04.642Z,7.00
2022-12-11T09:06:07.906Z,7.43
2022-12-11T09:07:11.281Z,7.57
2022-12-11T09:08:14.731Z,6.71
2022-12-11T09:09:18.058Z,8.29
2022-12-11T09:10:21.590Z,7.14
2022-12-11T09:11:24.935Z,8.14
2022-12-11T09:12:28.009Z,8.71
2022-12-11T09:13:31.402Z,6.14
2022-12-11T09:14:34.372Z,5.00
2022-12-11T09:15:38.060Z,6.33
2022-12-11T09:16:41.148Z,5.71
2022-12-11T09:17:44.329Z,4.71
2022-12-11T09:18:47.410Z,4.50
2022-12-11T09:19:50.703Z,5.50
2022-12-11T09:20:53.979Z,7.71
2022-12-11T09:21:56.966Z,8.33
2022-12-11T09:23:00.345Z,8.33
2022-12-11T09:24:03.529Z,7.43
2022-12-11T09:25:06.708Z,8.29
2022-12-11T09:26:10.101Z,7.86
2022-12-11T09:27:13.261Z,7.57
2022-12-11T09:28:16.461Z,6.57
2022-12-11T09:29:19.527Z,7.43
2022-12-11T09:30:22.616Z,7.14
2022-12-11T09:31:26.995Z,5.43
2022-12-11T09:32:29.900Z,6.00
2022-12-11T09:33:33.164Z,6.57
2022-12-11T09:34:36.259Z,5.86
2022-12-11T09:35:39.559Z,6.57
2022-12-11T09:36:42.827Z,7.43
2022-12-11T09:37:46.213Z,6.29
2022-12-11T09:38:49.912Z,6.57
2022-12-11T09:39:53.297Z,7.75
2022-12-11T09:40:56.512Z,6.29
2022-12-11T09:42:00.095Z,6.17
2022-12-11T09:43:03.360Z,5.71
2022-12-11T09:44:06.744Z,7.14
2022-12-11T09:45:10.360Z,7.00
2022-12-11T09:46:14.062Z,6.37
2022-12-11T09:47:17.400Z,7.43
2022-12-11T09:48:20.698Z,10.00
2022-12-11T09:49:24.189Z,11.00
2022-12-11T09:50:27.467Z,7.00
2022-12-11T09:51:30.871Z,5.86
2022-12-11T09:52:34.249Z,8.86
2022-12-11T09:53:37.447Z,8.43
2022-12-11T09:54:40.723Z,5.33
2022-12-11T09:55:44.209Z,6.86
2022-12-11T09:56:48.003Z,7.14
2022-12-11T09:57:51.382Z,7.14
2022-12-11T09:58:54.881Z,8.29
2022-12-11T10:00:04.257Z,7.43
2022-12-11T10:01:02.356Z,7.75
2022-12-11T10:02:05.807Z,8.67
2022-12-11T10:03:09.337Z,10.00
2022-12-11T10:04:12.647Z,8.43
2022-12-11T10:05:15.911Z,7.00
2022-12-11T10:06:19.510Z,7.00
2022-12-11T10:07:22.815Z,7.25
2022-12-11T10:08:26.489Z,6.14
2022-12-11T10:09:29.568Z,7.43
2022-12-11T10:10:32.842Z,8.14
2022-12-11T10:11:36.025Z,7.71
2022-12-11T10:12:39.202Z,7.00
2022-12-11T10:13:42.799Z,5.86
2022-12-11T10:14:46.123Z,7.71
2022-12-11T10:15:49.718Z,7.14
2022-12-11T10:16:53.056Z,7.00
2022-12-11T10:18:01.329Z,7.14
2022-12-11T10:19:01.208Z,7.75
2022-12-11T10:20:04.551Z,7.62
2022-12-11T10:21:08.041Z,7.00
2022-12-11T10:22:11.431Z,8.00
2022-12-11T10:23:14.921Z,7.57
2022-12-11T10:24:40.823Z,7.71
2022-12-11T10:25:22.836Z,8.38
2022-12-11T10:26:25.924Z,8.00
2022-12-11T10:27:29.384Z,7.57
2022-12-11T10:28:32.769Z,7.00
2022-12-11T10:29:36.054Z,9.00
2022-12-11T10:30:39.355Z,10.43
2022-12-11T10:31:42.928Z,10.00
2022-12-11T10:32:46.112Z,9.57
2022-12-11T10:33:49.268Z,11.14
2022-12-11T10:34:52.560Z,12.00
2022-12-11T10:35:55.523Z,9.43
2022-12-11T10:37:00.534Z,8.33
2022-12-11T10:38:03.108Z,8.88
2022-12-11T10:39:06.605Z,8.29
2022-12-11T10:40:10.427Z,7.57
2022-12-11T10:41:13.518Z,9.00
2022-12-11T10:42:17.102Z,7.71
2022-12-11T10:43:20.488Z,8.00
2022-12-11T10:44:24.067Z,8.00
2022-12-11T10:45:27.591Z,8.71
2022-12-11T10:46:30.718Z,7.57
2022-12-11T10:47:33.828Z,8.57
2022-12-11T10:48:40.017Z,10.33
2022-12-11T10:49:41.220Z,7.86
2022-12-11T10:50:44.497Z,8.67
2022-12-11T10:51:47.849Z,10.00
2022-12-11T10:52:51.074Z,10.17
2022-12-11T10:53:54.355Z,8.67
2022-12-11T10:54:57.946Z,9.14
2022-12-11T10:56:01.339Z,8.71
2022-12-11T10:57:04.408Z,8.86
2022-12-11T10:58:07.798Z,9.86
2022-12-11T10:59:11.092Z,10.57
2022-12-11T11:00:14.269Z,11.17
2022-12-11T11:01:17.960Z,10.86
2022-12-11T11:02:21.407Z,11.29
2022-12-11T11:03:24.743Z,10.86
2022-12-11T11:04:27.810Z,8.83
2022-12-11T11:05:30.865Z,10.17
2022-12-11T11:06:34.072Z,7.14
2022-12-11T11:07:37.150Z,8.29
2022-12-11T11:08:40.231Z,10.71
2022-12-11T11:09:43.313Z,10.29
2022-12-11T11:10:46.599Z,10.57
2022-12-11T11:11:49.885Z,12.57
2022-12-11T11:12:53.062Z,10.00
2022-12-11T11:13:56.140Z,10.00
2022-12-11T11:14:59.220Z,12.00
2022-12-11T11:16:02.427Z,10.57
2022-12-11T11:17:05.582Z,12.29
2022-12-11T11:18:09.172Z,13.29
2022-12-11T11:19:12.370Z,11.57
2022-12-11T11:20:15.692Z,11.86
2022-12-11T11:21:18.718Z,14.00
2022-12-11T11:22:21.695Z,14.17
2022-12-11T11:23:25.297Z,14.00
2022-12-11T11:24:28.528Z,10.29
2022-12-11T11:25:31.853Z,10.57
2022-12-11T11:27:11.158Z,12.71
2022-12-11T11:27:39.242Z,12.75
2022-12-11T11:28:42.433Z,14.71
2022-12-11T11:29:48.958Z,11.43
2022-12-11T11:30:50.072Z,11.00
2022-12-11T11:31:53.163Z,13.14
2022-12-11T11:32:56.894Z,10.71
2022-12-11T11:34:00.178Z,9.57
2022-12-11T11:35:03.526Z,10.33
2022-12-11T11:36:06.642Z,10.83
2022-12-11T11:37:10.031Z,11.67
2022-12-11T11:38:13.620Z,13.57
2022-12-11T11:39:17.011Z,12.71
2022-12-11T11:40:20.191Z,9.86
2022-12-11T11:41:23.474Z,9.57
2022-12-11T11:42:26.653Z,9.71
2022-12-11T11:43:30.452Z,12.14
2022-12-11T11:44:33.632Z,11.50
2022-12-11T11:45:36.712Z,9.00
2022-12-11T11:46:39.928Z,9.67
2022-12-11T11:47:43.078Z,10.83
2022-12-11T11:48:46.771Z,9.14
2022-12-11T11:49:49.958Z,9.14
2022-12-11T11:50:53.240Z,10.17
2022-12-11T11:51:56.474Z,12.00
2022-12-11T11:52:59.502Z,11.33
2022-12-11T11:54:03.156Z,10.67
2022-12-11T11:55:06.171Z,9.50
2022-12-11T11:56:09.451Z,10.33
2022-12-11T11:57:12.588Z,8.17
2022-12-11T11:58:15.814Z,9.33
2022-12-11T11:59:19.614Z,11.71
2022-12-11T12:00:22.899Z,13.50
2022-12-11T12:01:26.194Z,11.71
2022-12-11T12:02:29.513Z,12.00
2022-12-11T12:03:32.748Z,11.86
2022-12-11T12:04:36.009Z,11.71
2022-12-11T12:05:39.214Z,13.29
2022-12-11T12:06:46.058Z,13.57
2022-12-11T12:07:47.017Z,11.63
2022-12-11T12:08:50.510Z,13.86
2022-12-11T12:09:53.944Z,15.43
2022-12-11T12:10:57.180Z,15.17
2022-12-11T12:12:00.561Z,15.29
2022-12-11T12:13:03.750Z,16.29
2022-12-11T12:14:17.578Z,17.00
2022-12-11T12:15:11.979Z,13.62
2022-12-11T12:16:50.469Z,12.00
2022-12-11T12:17:19.782Z,10.75
2022-12-11T12:18:23.028Z,13.17
2022-12-11T12:19:26.313Z,13.33
2022-12-11T12:20:30.013Z,14.33
2022-12-11T12:21:33.193Z,13.86
2022-12-11T12:22:36.379Z,11.14
2022-12-11T12:23:39.445Z,11.14
2022-12-11T12:24:42.400Z,13.33
2022-12-11T12:25:45.818Z,13.50
2022-12-11T12:26:49.000Z,13.00
2022-12-11T12:27:52.945Z,12.71
2022-12-11T12:28:56.288Z,15.25
2022-12-11T12:29:59.465Z,14.14
2022-12-11T12:31:02.746Z,12.17
2022-12-11T12:32:06.034Z,12.00
2022-12-11T12:33:09.040Z,10.33
2022-12-11T12:34:12.111Z,12.00
2022-12-11T12:35:15.284Z,12.71
2022-12-11T12:36:18.351Z,11.57
2022-12-11T12:37:21.542Z,12.00
2022-12-11T12:38:24.920Z,14.00
2022-12-11T12:39:28.209Z,14.43
2022-12-11T12:40:31.285Z,12.00
2022-12-11T12:41:34.579Z,12.14
2022-12-11T12:42:37.745Z,11.14
2022-12-11T12:43:40.881Z,13.00
2022-12-11T12:44:44.010Z,11.71
2022-12-11T12:45:47.205Z,10.71
2022-12-11T12:46:50.475Z,9.67
2022-12-11T12:47:54.389Z,10.71
2022-12-11T12:48:57.761Z,11.57
2022-12-11T12:50:01.047Z,10.43
2022-12-11T12:51:04.304Z,12.33
2022-12-11T12:52:07.724Z,11.67
2022-12-11T12:53:11.007Z,11.14
2022-12-11T12:54:14.460Z,12.86
2022-12-11T12:55:17.670Z,12.29
2022-12-11T12:56:20.961Z,11.43
2022-12-11T12:57:24.247Z,11.00
2022-12-11T12:58:27.520Z,10.43
2022-12-11T12:59:31.014Z,10.86
2022-12-11T13:00:34.197Z,10.71
2022-12-11T13:01:37.338Z,9.43
2022-12-11T13:02:40.571Z,9.17
2022-12-11T13:03:43.642Z,10.71
2022-12-11T13:05:01.737Z,9.00
2022-12-11T13:05:51.336Z,6.75
2022-12-11T13:06:54.829Z,8.71
2022-12-11T13:07:58.873Z,9.14
2022-12-11T13:09:02.312Z,7.57
2022-12-11T13:10:05.901Z,9.57
2022-12-11T13:11:09.187Z,10.57
2022-12-11T13:12:12.572Z,7.86
2022-12-11T13:13:15.859Z,7.57
2022-12-11T13:14:19.139Z,7.71
2022-12-11T13:15:22.529Z,8.43
2022-12-11T13:16:26.169Z,7.00
2022-12-11T13:17:29.922Z,6.29
2022-12-11T13:18:33.016Z,6.86
2022-12-11T13:19:42.099Z,7.33
2022-12-11T13:20:40.472Z,6.50
2022-12-11T13:21:43.574Z,6.67
2022-12-11T13:22:46.890Z,9.00
2022-12-11T13:23:49.929Z,7.71
2022-12-11T13:24:53.617Z,7.00
2022-12-11T13:25:57.111Z,6.50
2022-12-11T13:27:00.601Z,6.86
2022-12-11T13:28:04.211Z,8.14
2022-12-11T13:29:07.889Z,6.75
2022-12-11T13:30:11.070Z,5.29
2022-12-11T13:31:14.518Z,6.00
2022-12-11T13:32:17.943Z,6.86
2022-12-11T13:33:21.329Z,7.00
2022-12-11T13:34:24.819Z,7.00
2022-12-11T13:35:28.311Z,7.86
2022-12-11T13:36:34.459Z,8.14
2022-12-11T13:37:38.055Z,5.87
2022-12-11T13:38:41.341Z,5.71
2022-12-11T13:39:44.621Z,6.86
2022-12-11T13:40:47.920Z,7.00
2022-12-11T13:41:54.569Z,6.57
2022-12-11T13:42:57.851Z,6.50
2022-12-11T13:44:01.239Z,6.71
2022-12-11T13:45:04.828Z,5.33
2022-12-11T13:46:08.048Z,5.43
2022-12-11T13:47:11.503Z,7.29
2022-12-11T13:48:16.942Z,8.00
2022-12-11T13:49:19.507Z,7.12
2022-12-11T13:50:23.221Z,7.71
2022-12-11T13:51:26.279Z,6.71
2022-12-11T13:52:29.772Z,5.86
2022-12-11T13:53:33.149Z,6.00
2022-12-11T13:54:36.221Z,6.43
2022-12-11T13:55:39.313Z,6.17
2022-12-11T13:56:42.386Z,6.33
2022-12-11T13:57:45.470Z,5.43
2022-12-11T13:58:48.966Z,5.43